Lukeville, Arizona
Current Conditions -  °F | °C
As of 6:56 AM on Tuesday 27 Jan 2015 (Local Time) from KGXF Reporting Station
Overcast Overcast  
Wind Chill: 51°   Ceiling: 4200
Heat Index: 51°   Visibility: 6mi
Dew Point: 50°   Wind: 2mph
Humidity: 94%   Direction: 140°SE
Pressure: 30.21"   Gusts: NA
Location:  31.88°N, 112.82°W
Report Text: KGXF 271356Z AUTO 14002KT 6SM M OVC042 11/10 A3021 RMK AO2 SLP227 T01080099 $
Loading
Personal Weather Stations






























Interactive Weather Map New forecast layout! Learn more

10-Day Weather Forecast

Advertisements
Track Severe Weather on mobile